Impacts METAR Board
IDs:

KPDX - Portland Intl Arpt, OR, US

Updated at: 1900 UTC 17 Jul 2018
Potential Impact None Slight Moderate High
Time 17/07Z 17/08Z 17/09Z 17/10Z 17/11Z 17/12Z 17/13Z 17/14Z 17/15Z 17/16Z 17/17Z 17/18Z 17/19Z
Temp75 73 70 67 65 64 64 64 66 68 73 76 80
Dewpt56 57 56 55 55 55 55 55 55 54 55 55 54
Altim29.96 29.98 29.98 29.99 30.00 30.01 30.03 30.04 30.06 30.07 30.06 30.06 30.05
VIS10 10 10 10 10 10 10 10 10 10 10 10 10
CIG-- -- -- -- -- -- -- -- -- -- -- -- --
CoverCLRCLRCLRCLRFEWFEWFEWFEWFEWFEWCLRCLRCLR
FltCatVFRVFRVFRVFRVFRVFRVFRVFRVFRVFRVFRVFRVFR
WX--------------------------
WDir0270330330300010350029003300
WSpd4 3 4 5 6 0 3 4 0 4 4 5 4
WGst-- -- -- -- -- -- -- -- -- -- -- -- --
Raw hourly METARs
KPDX 170653Z VRB04KT 10SM CLR 24/13 A2996 RMK AO2 SLP144 T02390133
KPDX 170753Z 27003KT 10SM CLR 23/14 A2998 RMK AO2 SLP150 T02280139 403670189
KPDX 170853Z 33004KT 10SM CLR 21/13 A2998 RMK AO2 SLP151 T02110133 51009
KPDX 170953Z 33005KT 10SM CLR 19/13 A2999 RMK AO2 SLP154 T01940128
KPDX 171053Z 30006KT 10SM FEW250 18/13 A3000 RMK AO2 SLP158 T01830128
KPDX 171153Z 00000KT 10SM FEW250 18/13 A3001 RMK AO2 SLP162 T01780128 10261 20178 53010
KPDX 171253Z 01003KT 10SM FEW180 FEW250 18/13 A3003 RMK AO2 SLP167 T01780128
KPDX 171353Z 35004KT 10SM FEW250 18/13 A3004 RMK AO2 SLP172 T01780128
KPDX 171453Z 00000KT 10SM FEW250 19/13 A3006 RMK AO2 SLP177 T01890128 51016
KPDX 171553Z 29004KT 10SM FEW250 20/12 A3007 RMK AO2 SLP180 T02000122
KPDX 171653Z VRB04KT 10SM CLR 23/13 A3006 RMK AO2 SLP178 T02280128
KPDX 171753Z 33005KT 10SM CLR 24/13 A3006 RMK AO2 SLP176 T02440128 10244 20172 58001
KPDX 171853Z VRB04KT 10SM CLR 27/12 A3005 RMK AO2 SLP174 T02670122



Page loaded:  19:28 UTC  |   12:28 PM Pacific  |   01:28 PM Mountain  |   02:28 PM Central  |   03:28 PM Eastern

 

ADVISORIES

FORECASTS

FORECASTS

OBSERVATIONS

USER TOOLS

ABOUT US